sensor_id;sensor_type;location;lat;lon;timestamp;P1;durP1;ratioP1;P2;durP2;ratioP2
51852;SDS011;37894;53.172;6.598;2023-05-23T00:02:08;35.88;;;17.92;;
51852;SDS011;37894;53.172;6.598;2023-05-23T00:04:34;31.08;;;17.70;;
51852;SDS011;37894;53.172;6.598;2023-05-23T00:07:02;35.90;;;17.73;;
51852;SDS011;37894;53.172;6.598;2023-05-23T00:09:28;39.83;;;17.60;;
51852;SDS011;37894;53.172;6.598;2023-05-23T00:11:55;37.25;;;16.23;;
51852;SDS011;37894;53.172;6.598;2023-05-23T00:14:20;35.63;;;17.50;;
51852;SDS011;37894;53.172;6.598;2023-05-23T00:16:47;34.38;;;16.25;;
51852;SDS011;37894;53.172;6.598;2023-05-23T00:19:14;32.65;;;16.73;;
51852;SDS011;37894;53.172;6.598;2023-05-23T00:21:40;32.53;;;16.33;;
51852;SDS011;37894;53.172;6.598;2023-05-23T00:24:07;41.47;;;16.92;;
51852;SDS011;37894;53.172;6.598;2023-05-23T00:26:34;30.20;;;16.92;;
51852;SDS011;37894;53.172;6.598;2023-05-23T00:29:00;38.17;;;16.92;;
51852;SDS011;37894;53.172;6.598;2023-05-23T00:31:26;32.25;;;15.93;;
51852;SDS011;37894;53.172;6.598;2023-05-23T00:33:52;32.38;;;15.20;;
51852;SDS011;37894;53.172;6.598;2023-05-23T00:36:18;30.58;;;15.05;;
51852;SDS011;37894;53.172;6.598;2023-05-23T00:38:44;28.95;;;15.80;;
51852;SDS011;37894;53.172;6.598;2023-05-23T00:41:10;28.17;;;14.60;;
51852;SDS011;37894;53.172;6.598;2023-05-23T00:43:36;30.75;;;13.90;;
51852;SDS011;37894;53.172;6.598;2023-05-23T00:46:02;28.90;;;15.95;;
51852;SDS011;37894;53.172;6.598;2023-05-23T00:48:28;30.25;;;16.55;;
51852;SDS011;37894;53.172;6.598;2023-05-23T00:50:55;28.27;;;15.43;;
51852;SDS011;37894;53.172;6.598;2023-05-23T00:53:21;27.70;;;17.23;;
51852;SDS011;37894;53.172;6.598;2023-05-23T00:55:48;34.03;;;17.38;;
51852;SDS011;37894;53.172;6.598;2023-05-23T00:58:14;26.25;;;16.35;;
51852;SDS011;37894;53.172;6.598;2023-05-23T01:00:41;31.83;;;16.63;;
51852;SDS011;37894;53.172;6.598;2023-05-23T01:03:09;27.65;;;15.93;;
51852;SDS011;37894;53.172;6.598;2023-05-23T01:05:41;26.98;;;15.68;;
51852;SDS011;37894;53.172;6.598;2023-05-23T01:08:10;25.35;;;14.38;;
51852;SDS011;37894;53.172;6.598;2023-05-23T01:10:36;24.45;;;12.70;;
51852;SDS011;37894;53.172;6.598;2023-05-23T01:15:39;22.27;;;12.63;;
51852;SDS011;37894;53.172;6.598;2023-05-23T01:18:31;24.48;;;11.60;;
51852;SDS011;37894;53.172;6.598;2023-05-23T01:21:10;19.15;;;10.23;;
51852;SDS011;37894;53.172;6.598;2023-05-23T01:29:19;15.70;;;8.85;;
51852;SDS011;37894;53.172;6.598;2023-05-23T01:31:54;16.27;;;8.77;;
51852;SDS011;37894;53.172;6.598;2023-05-23T01:34:23;17.40;;;9.30;;
51852;SDS011;37894;53.172;6.598;2023-05-23T01:36:49;18.73;;;9.63;;
51852;SDS011;37894;53.172;6.598;2023-05-23T01:39:22;19.50;;;9.85;;
51852;SDS011;37894;53.172;6.598;2023-05-23T01:41:48;18.17;;;10.27;;
51852;SDS011;37894;53.172;6.598;2023-05-23T01:44:15;21.33;;;10.95;;
51852;SDS011;37894;53.172;6.598;2023-05-23T01:46:41;27.17;;;10.88;;
51852;SDS011;37894;53.172;6.598;2023-05-23T01:49:09;27.73;;;10.55;;
51852;SDS011;37894;53.172;6.598;2023-05-23T01:51:37;20.65;;;9.25;;
51852;SDS011;37894;53.172;6.598;2023-05-23T01:54:03;22.00;;;10.35;;
51852;SDS011;37894;53.172;6.598;2023-05-23T01:56:30;25.00;;;10.38;;
51852;SDS011;37894;53.172;6.598;2023-05-23T01:58:56;25.38;;;10.30;;
51852;SDS011;37894;53.172;6.598;2023-05-23T02:01:22;28.38;;;10.23;;
51852;SDS011;37894;53.172;6.598;2023-05-23T02:03:48;23.05;;;9.43;;
51852;SDS011;37894;53.172;6.598;2023-05-23T02:06:14;26.17;;;9.30;;
51852;SDS011;37894;53.172;6.598;2023-05-23T02:08:40;24.77;;;10.18;;
51852;SDS011;37894;53.172;6.598;2023-05-23T02:11:06;20.55;;;9.68;;
51852;SDS011;37894;53.172;6.598;2023-05-23T02:13:33;20.17;;;10.40;;
51852;SDS011;37894;53.172;6.598;2023-05-23T02:15:59;33.50;;;10.43;;
51852;SDS011;37894;53.172;6.598;2023-05-23T02:18:25;21.95;;;9.90;;
51852;SDS011;37894;53.172;6.598;2023-05-23T02:20:53;29.42;;;10.45;;
51852;SDS011;37894;53.172;6.598;2023-05-23T02:23:20;30.70;;;10.13;;
51852;SDS011;37894;53.172;6.598;2023-05-23T02:25:46;27.27;;;9.50;;
51852;SDS011;37894;53.172;6.598;2023-05-23T02:28:12;25.23;;;9.18;;
51852;SDS011;37894;53.172;6.598;2023-05-23T02:30:38;23.13;;;9.68;;
51852;SDS011;37894;53.172;6.598;2023-05-23T02:33:04;19.27;;;9.18;;
51852;SDS011;37894;53.172;6.598;2023-05-23T02:35:32;22.10;;;7.72;;
51852;SDS011;37894;53.172;6.598;2023-05-23T02:37:58;20.45;;;8.43;;
51852;SDS011;37894;53.172;6.598;2023-05-23T02:40:24;23.27;;;8.50;;
51852;SDS011;37894;53.172;6.598;2023-05-23T02:42:49;20.77;;;8.02;;
51852;SDS011;37894;53.172;6.598;2023-05-23T02:45:16;21.25;;;8.90;;
51852;SDS011;37894;53.172;6.598;2023-05-23T02:47:42;21.27;;;8.93;;
51852;SDS011;37894;53.172;6.598;2023-05-23T02:50:08;28.48;;;8.45;;
51852;SDS011;37894;53.172;6.598;2023-05-23T02:52:34;25.88;;;8.80;;
51852;SDS011;37894;53.172;6.598;2023-05-23T02:55:00;26.15;;;9.02;;
51852;SDS011;37894;53.172;6.598;2023-05-23T02:57:26;25.35;;;9.45;;
51852;SDS011;37894;53.172;6.598;2023-05-23T02:59:52;18.95;;;7.93;;
51852;SDS011;37894;53.172;6.598;2023-05-23T03:02:18;22.65;;;8.80;;
51852;SDS011;37894;53.172;6.598;2023-05-23T03:04:45;29.70;;;8.70;;
51852;SDS011;37894;53.172;6.598;2023-05-23T03:07:12;30.80;;;8.63;;
51852;SDS011;37894;53.172;6.598;2023-05-23T03:09:39;27.92;;;9.20;;
51852;SDS011;37894;53.172;6.598;2023-05-23T03:12:05;38.13;;;10.07;;
51852;SDS011;37894;53.172;6.598;2023-05-23T03:14:31;28.10;;;9.00;;
51852;SDS011;37894;53.172;6.598;2023-05-23T03:16:56;21.45;;;8.60;;
51852;SDS011;37894;53.172;6.598;2023-05-23T03:19:22;21.00;;;8.48;;
51852;SDS011;37894;53.172;6.598;2023-05-23T03:21:48;29.42;;;9.55;;
51852;SDS011;37894;53.172;6.598;2023-05-23T03:24:16;23.77;;;8.80;;
51852;SDS011;37894;53.172;6.598;2023-05-23T03:26:42;24.92;;;8.38;;
51852;SDS011;37894;53.172;6.598;2023-05-23T03:29:09;22.27;;;8.68;;
51852;SDS011;37894;53.172;6.598;2023-05-23T03:31:35;26.17;;;8.18;;
51852;SDS011;37894;53.172;6.598;2023-05-23T03:34:01;30.05;;;9.02;;
51852;SDS011;37894;53.172;6.598;2023-05-23T03:36:31;20.13;;;7.40;;
51852;SDS011;37894;53.172;6.598;2023-05-23T03:38:58;18.85;;;6.68;;
51852;SDS011;37894;53.172;6.598;2023-05-23T03:41:24;26.65;;;7.45;;
51852;SDS011;37894;53.172;6.598;2023-05-23T03:43:50;24.02;;;7.63;;
51852;SDS011;37894;53.172;6.598;2023-05-23T03:46:16;25.52;;;7.05;;
51852;SDS011;37894;53.172;6.598;2023-05-23T03:48:42;18.25;;;7.88;;
51852;SDS011;37894;53.172;6.598;2023-05-23T03:51:08;20.17;;;7.40;;
51852;SDS011;37894;53.172;6.598;2023-05-23T03:53:34;23.92;;;7.50;;
51852;SDS011;37894;53.172;6.598;2023-05-23T03:55:59;18.15;;;7.43;;
51852;SDS011;37894;53.172;6.598;2023-05-23T03:58:25;22.45;;;6.85;;
51852;SDS011;37894;53.172;6.598;2023-05-23T04:00:51;20.73;;;6.47;;
51852;SDS011;37894;53.172;6.598;2023-05-23T04:03:17;21.63;;;6.53;;
51852;SDS011;37894;53.172;6.598;2023-05-23T04:05:43;15.20;;;5.93;;
51852;SDS011;37894;53.172;6.598;2023-05-23T04:08:09;16.25;;;6.43;;
51852;SDS011;37894;53.172;6.598;2023-05-23T04:10:35;24.25;;;6.70;;
51852;SDS011;37894;53.172;6.598;2023-05-23T04:13:01;17.25;;;6.18;;
51852;SDS011;37894;53.172;6.598;2023-05-23T04:15:27;19.08;;;6.18;;
51852;SDS011;37894;53.172;6.598;2023-05-23T04:17:53;23.73;;;6.80;;
51852;SDS011;37894;53.172;6.598;2023-05-23T04:20:18;20.80;;;6.53;;
51852;SDS011;37894;53.172;6.598;2023-05-23T04:22:44;16.83;;;5.90;;
51852;SDS011;37894;53.172;6.598;2023-05-23T04:25:10;27.50;;;6.60;;
51852;SDS011;37894;53.172;6.598;2023-05-23T04:27:36;20.63;;;5.95;;
51852;SDS011;37894;53.172;6.598;2023-05-23T04:30:04;22.65;;;5.20;;
51852;SDS011;37894;53.172;6.598;2023-05-23T04:32:31;22.00;;;5.28;;
51852;SDS011;37894;53.172;6.598;2023-05-23T04:34:56;19.88;;;6.13;;
51852;SDS011;37894;53.172;6.598;2023-05-23T04:37:22;16.73;;;4.50;;
51852;SDS011;37894;53.172;6.598;2023-05-23T04:39:50;16.85;;;5.63;;
51852;SDS011;37894;53.172;6.598;2023-05-23T04:42:17;17.10;;;5.28;;
51852;SDS011;37894;53.172;6.598;2023-05-23T04:44:48;13.43;;;4.67;;
51852;SDS011;37894;53.172;6.598;2023-05-23T04:47:14;24.92;;;5.85;;
51852;SDS011;37894;53.172;6.598;2023-05-23T04:49:40;18.70;;;5.47;;
51852;SDS011;37894;53.172;6.598;2023-05-23T04:52:06;14.35;;;4.65;;
51852;SDS011;37894;53.172;6.598;2023-05-23T04:54:32;17.52;;;4.78;;
51852;SDS011;37894;53.172;6.598;2023-05-23T04:56:57;15.68;;;5.93;;
51852;SDS011;37894;53.172;6.598;2023-05-23T04:59:24;16.77;;;5.35;;
51852;SDS011;37894;53.172;6.598;2023-05-23T05:01:50;20.75;;;7.32;;
51852;SDS011;37894;53.172;6.598;2023-05-23T05:04:16;20.50;;;6.78;;
51852;SDS011;37894;53.172;6.598;2023-05-23T05:06:42;22.83;;;6.95;;
51852;SDS011;37894;53.172;6.598;2023-05-23T05:09:07;19.42;;;8.35;;
51852;SDS011;37894;53.172;6.598;2023-05-23T05:11:33;19.30;;;6.75;;
51852;SDS011;37894;53.172;6.598;2023-05-23T05:13:59;18.35;;;7.68;;
51852;SDS011;37894;53.172;6.598;2023-05-23T05:16:25;25.40;;;8.05;;
51852;SDS011;37894;53.172;6.598;2023-05-23T05:18:51;20.98;;;7.50;;
51852;SDS011;37894;53.172;6.598;2023-05-23T05:21:17;24.08;;;8.38;;
51852;SDS011;37894;53.172;6.598;2023-05-23T05:23:42;24.30;;;8.90;;
51852;SDS011;37894;53.172;6.598;2023-05-23T05:26:08;17.13;;;7.25;;
51852;SDS011;37894;53.172;6.598;2023-05-23T05:28:34;23.08;;;6.93;;
51852;SDS011;37894;53.172;6.598;2023-05-23T05:31:00;17.65;;;6.80;;
51852;SDS011;37894;53.172;6.598;2023-05-23T05:33:29;19.92;;;7.07;;
51852;SDS011;37894;53.172;6.598;2023-05-23T05:36:00;17.63;;;6.75;;
51852;SDS011;37894;53.172;6.598;2023-05-23T05:38:26;17.83;;;6.57;;
51852;SDS011;37894;53.172;6.598;2023-05-23T05:40:52;18.08;;;6.60;;
51852;SDS011;37894;53.172;6.598;2023-05-23T05:43:18;17.67;;;6.70;;
51852;SDS011;37894;53.172;6.598;2023-05-23T05:45:44;17.92;;;6.00;;
51852;SDS011;37894;53.172;6.598;2023-05-23T05:48:09;19.60;;;6.68;;
51852;SDS011;37894;53.172;6.598;2023-05-23T05:50:36;16.75;;;5.55;;
51852;SDS011;37894;53.172;6.598;2023-05-23T05:53:02;13.23;;;5.25;;
51852;SDS011;37894;53.172;6.598;2023-05-23T05:55:28;11.15;;;4.60;;
51852;SDS011;37894;53.172;6.598;2023-05-23T05:57:54;17.38;;;5.53;;
51852;SDS011;37894;53.172;6.598;2023-05-23T06:00:20;12.77;;;5.05;;
51852;SDS011;37894;53.172;6.598;2023-05-23T06:02:46;12.30;;;4.10;;
51852;SDS011;37894;53.172;6.598;2023-05-23T06:05:12;12.48;;;4.28;;
51852;SDS011;37894;53.172;6.598;2023-05-23T06:07:40;12.82;;;4.55;;
51852;SDS011;37894;53.172;6.598;2023-05-23T06:10:07;14.52;;;4.05;;
51852;SDS011;37894;53.172;6.598;2023-05-23T06:12:34;15.52;;;4.97;;
51852;SDS011;37894;53.172;6.598;2023-05-23T06:15:00;17.55;;;5.25;;
51852;SDS011;37894;53.172;6.598;2023-05-23T06:17:26;12.00;;;4.93;;
51852;SDS011;37894;53.172;6.598;2023-05-23T06:19:52;15.38;;;4.40;;
51852;SDS011;37894;53.172;6.598;2023-05-23T06:22:18;12.35;;;4.10;;
51852;SDS011;37894;53.172;6.598;2023-05-23T06:24:44;19.42;;;4.85;;
51852;SDS011;37894;53.172;6.598;2023-05-23T06:27:10;15.25;;;4.47;;
51852;SDS011;37894;53.172;6.598;2023-05-23T06:29:37;23.23;;;5.45;;
51852;SDS011;37894;53.172;6.598;2023-05-23T06:32:02;17.33;;;4.15;;
51852;SDS011;37894;53.172;6.598;2023-05-23T06:34:29;16.35;;;4.25;;
51852;SDS011;37894;53.172;6.598;2023-05-23T06:36:54;15.25;;;4.32;;
51852;SDS011;37894;53.172;6.598;2023-05-23T06:39:20;18.27;;;5.63;;
51852;SDS011;37894;53.172;6.598;2023-05-23T06:41:46;18.70;;;3.92;;
51852;SDS011;37894;53.172;6.598;2023-05-23T06:44:13;18.30;;;4.50;;
51852;SDS011;37894;53.172;6.598;2023-05-23T06:46:39;18.58;;;4.80;;
51852;SDS011;37894;53.172;6.598;2023-05-23T06:49:07;10.73;;;3.20;;
51852;SDS011;37894;53.172;6.598;2023-05-23T06:51:33;10.73;;;3.53;;
51852;SDS011;37894;53.172;6.598;2023-05-23T06:53:59;17.73;;;4.43;;
51852;SDS011;37894;53.172;6.598;2023-05-23T06:56:25;14.55;;;4.10;;
51852;SDS011;37894;53.172;6.598;2023-05-23T06:58:52;11.82;;;3.55;;
51852;SDS011;37894;53.172;6.598;2023-05-23T07:01:17;19.20;;;4.55;;
51852;SDS011;37894;53.172;6.598;2023-05-23T07:03:43;20.58;;;4.32;;
51852;SDS011;37894;53.172;6.598;2023-05-23T07:06:10;17.40;;;4.20;;
51852;SDS011;37894;53.172;6.598;2023-05-23T07:08:36;18.98;;;4.57;;
51852;SDS011;37894;53.172;6.598;2023-05-23T07:11:03;27.63;;;4.10;;
51852;SDS011;37894;53.172;6.598;2023-05-23T07:13:29;18.02;;;4.82;;
51852;SDS011;37894;53.172;6.598;2023-05-23T07:15:55;16.98;;;4.15;;
51852;SDS011;37894;53.172;6.598;2023-05-23T07:18:21;18.10;;;3.30;;
51852;SDS011;37894;53.172;6.598;2023-05-23T07:20:47;22.92;;;3.92;;
51852;SDS011;37894;53.172;6.598;2023-05-23T07:23:14;21.52;;;3.85;;
51852;SDS011;37894;53.172;6.598;2023-05-23T07:25:40;17.45;;;3.85;;
51852;SDS011;37894;53.172;6.598;2023-05-23T07:28:07;15.00;;;3.88;;
51852;SDS011;37894;53.172;6.598;2023-05-23T07:30:33;17.70;;;3.95;;
51852;SDS011;37894;53.172;6.598;2023-05-23T07:32:59;20.60;;;5.22;;
51852;SDS011;37894;53.172;6.598;2023-05-23T07:35:24;15.07;;;3.92;;
51852;SDS011;37894;53.172;6.598;2023-05-23T07:37:51;20.83;;;4.60;;
51852;SDS011;37894;53.172;6.598;2023-05-23T07:40:17;11.98;;;2.92;;
51852;SDS011;37894;53.172;6.598;2023-05-23T07:42:43;14.63;;;4.32;;
51852;SDS011;37894;53.172;6.598;2023-05-23T07:45:09;10.25;;;3.20;;
51852;SDS011;37894;53.172;6.598;2023-05-23T07:47:35;12.27;;;3.17;;
51852;SDS011;37894;53.172;6.598;2023-05-23T07:50:01;14.50;;;3.80;;
51852;SDS011;37894;53.172;6.598;2023-05-23T07:52:28;16.92;;;3.88;;
51852;SDS011;37894;53.172;6.598;2023-05-23T07:54:54;14.65;;;4.03;;
51852;SDS011;37894;53.172;6.598;2023-05-23T07:57:20;23.70;;;4.30;;
51852;SDS011;37894;53.172;6.598;2023-05-23T07:59:48;18.40;;;3.55;;
51852;SDS011;37894;53.172;6.598;2023-05-23T08:02:15;19.58;;;3.83;;
51852;SDS011;37894;53.172;6.598;2023-05-23T08:04:41;17.40;;;3.58;;
51852;SDS011;37894;53.172;6.598;2023-05-23T08:07:07;15.30;;;3.60;;
51852;SDS011;37894;53.172;6.598;2023-05-23T08:09:34;23.33;;;4.90;;
51852;SDS011;37894;53.172;6.598;2023-05-23T08:12:00;14.27;;;3.65;;
51852;SDS011;37894;53.172;6.598;2023-05-23T08:14:25;14.35;;;3.83;;
51852;SDS011;37894;53.172;6.598;2023-05-23T08:16:51;21.20;;;4.38;;
51852;SDS011;37894;53.172;6.598;2023-05-23T08:19:17;15.18;;;4.45;;
51852;SDS011;37894;53.172;6.598;2023-05-23T08:21:42;20.65;;;4.03;;
51852;SDS011;37894;53.172;6.598;2023-05-23T08:24:08;16.08;;;3.75;;
51852;SDS011;37894;53.172;6.598;2023-05-23T08:26:34;15.93;;;4.35;;
51852;SDS011;37894;53.172;6.598;2023-05-23T08:29:00;16.33;;;3.80;;
51852;SDS011;37894;53.172;6.598;2023-05-23T08:31:27;15.48;;;3.60;;
51852;SDS011;37894;53.172;6.598;2023-05-23T08:33:53;20.65;;;4.00;;
51852;SDS011;37894;53.172;6.598;2023-05-23T08:36:19;16.88;;;4.13;;
51852;SDS011;37894;53.172;6.598;2023-05-23T08:38:45;14.38;;;3.75;;
51852;SDS011;37894;53.172;6.598;2023-05-23T08:41:18;23.38;;;5.10;;
51852;SDS011;37894;53.172;6.598;2023-05-23T08:43:45;15.48;;;3.97;;
51852;SDS011;37894;53.172;6.598;2023-05-23T08:46:12;14.52;;;3.85;;
51852;SDS011;37894;53.172;6.598;2023-05-23T08:48:38;15.43;;;3.60;;
51852;SDS011;37894;53.172;6.598;2023-05-23T08:51:06;14.30;;;4.40;;
51852;SDS011;37894;53.172;6.598;2023-05-23T08:53:36;19.88;;;3.83;;
51852;SDS011;37894;53.172;6.598;2023-05-23T08:56:05;17.40;;;4.35;;
51852;SDS011;37894;53.172;6.598;2023-05-23T08:58:32;13.13;;;3.30;;
51852;SDS011;37894;53.172;6.598;2023-05-23T09:00:59;13.30;;;3.50;;
51852;SDS011;37894;53.172;6.598;2023-05-23T09:03:25;16.02;;;3.88;;
51852;SDS011;37894;53.172;6.598;2023-05-23T09:05:52;16.98;;;3.03;;
51852;SDS011;37894;53.172;6.598;2023-05-23T09:08:19;15.43;;;3.95;;
51852;SDS011;37894;53.172;6.598;2023-05-23T09:10:45;15.63;;;3.78;;
51852;SDS011;37894;53.172;6.598;2023-05-23T09:13:15;19.60;;;3.53;;
51852;SDS011;37894;53.172;6.598;2023-05-23T09:18:34;13.93;;;3.65;;
51852;SDS011;37894;53.172;6.598;2023-05-23T09:21:02;17.60;;;5.05;;
51852;SDS011;37894;53.172;6.598;2023-05-23T09:23:29;12.20;;;3.20;;
51852;SDS011;37894;53.172;6.598;2023-05-23T09:25:56;13.38;;;3.20;;
51852;SDS011;37894;53.172;6.598;2023-05-23T09:28:25;10.02;;;2.72;;
51852;SDS011;37894;53.172;6.598;2023-05-23T09:30:56;17.52;;;3.55;;
51852;SDS011;37894;53.172;6.598;2023-05-23T09:33:27;12.77;;;3.33;;
51852;SDS011;37894;53.172;6.598;2023-05-23T09:35:57;11.98;;;3.10;;
51852;SDS011;37894;53.172;6.598;2023-05-23T09:38:23;14.32;;;3.35;;
51852;SDS011;37894;53.172;6.598;2023-05-23T09:40:53;14.20;;;3.63;;
51852;SDS011;37894;53.172;6.598;2023-05-23T09:43:20;13.60;;;3.15;;
51852;SDS011;37894;53.172;6.598;2023-05-23T09:45:46;14.18;;;4.22;;
51852;SDS011;37894;53.172;6.598;2023-05-23T09:48:11;12.52;;;3.65;;
51852;SDS011;37894;53.172;6.598;2023-05-23T09:50:38;11.07;;;2.95;;
51852;SDS011;37894;53.172;6.598;2023-05-23T09:53:03;27.33;;;3.95;;
51852;SDS011;37894;53.172;6.598;2023-05-23T09:55:30;14.10;;;3.03;;
51852;SDS011;37894;53.172;6.598;2023-05-23T09:57:55;14.82;;;3.38;;
51852;SDS011;37894;53.172;6.598;2023-05-23T10:00:23;13.43;;;2.92;;
51852;SDS011;37894;53.172;6.598;2023-05-23T10:05:29;16.05;;;3.60;;
51852;SDS011;37894;53.172;6.598;2023-05-23T10:13:42;12.15;;;3.28;;
51852;SDS011;37894;53.172;6.598;2023-05-23T10:18:42;15.93;;;3.60;;
51852;SDS011;37894;53.172;6.598;2023-05-23T10:21:10;13.90;;;3.28;;
51852;SDS011;37894;53.172;6.598;2023-05-23T10:23:37;13.73;;;3.22;;
51852;SDS011;37894;53.172;6.598;2023-05-23T10:26:03;17.08;;;3.42;;
51852;SDS011;37894;53.172;6.598;2023-05-23T10:28:30;15.98;;;3.58;;
51852;SDS011;37894;53.172;6.598;2023-05-23T10:30:56;11.32;;;2.58;;
51852;SDS011;37894;53.172;6.598;2023-05-23T10:33:24;11.45;;;2.70;;
51852;SDS011;37894;53.172;6.598;2023-05-23T10:35:56;17.13;;;3.70;;
51852;SDS011;37894;53.172;6.598;2023-05-23T10:38:51;18.23;;;3.30;;
51852;SDS011;37894;53.172;6.598;2023-05-23T10:41:24;11.82;;;3.63;;
51852;SDS011;37894;53.172;6.598;2023-05-23T10:44:05;16.13;;;3.42;;
51852;SDS011;37894;53.172;6.598;2023-05-23T10:46:52;15.50;;;3.53;;
51852;SDS011;37894;53.172;6.598;2023-05-23T10:49:19;11.20;;;3.10;;
51852;SDS011;37894;53.172;6.598;2023-05-23T10:51:47;10.85;;;2.67;;
51852;SDS011;37894;53.172;6.598;2023-05-23T10:54:17;12.10;;;2.90;;
51852;SDS011;37894;53.172;6.598;2023-05-23T10:56:44;12.18;;;3.17;;
51852;SDS011;37894;53.172;6.598;2023-05-23T10:59:18;11.38;;;2.75;;
51852;SDS011;37894;53.172;6.598;2023-05-23T11:01:45;10.68;;;2.63;;
51852;SDS011;37894;53.172;6.598;2023-05-23T11:04:11;11.25;;;2.50;;
51852;SDS011;37894;53.172;6.598;2023-05-23T11:06:38;9.77;;;3.30;;
51852;SDS011;37894;53.172;6.598;2023-05-23T11:09:09;13.52;;;3.35;;
51852;SDS011;37894;53.172;6.598;2023-05-23T11:12:05;9.05;;;2.40;;
51852;SDS011;37894;53.172;6.598;2023-05-23T11:20:00;10.23;;;2.58;;
51852;SDS011;37894;53.172;6.598;2023-05-23T11:22:31;10.55;;;2.60;;
51852;SDS011;37894;53.172;6.598;2023-05-23T11:24:58;10.82;;;2.90;;
51852;SDS011;37894;53.172;6.598;2023-05-23T11:27:26;12.75;;;2.85;;
51852;SDS011;37894;53.172;6.598;2023-05-23T11:29:57;12.02;;;2.65;;
51852;SDS011;37894;53.172;6.598;2023-05-23T11:32:26;12.02;;;3.08;;
51852;SDS011;37894;53.172;6.598;2023-05-23T11:34:59;13.43;;;2.63;;
51852;SDS011;37894;53.172;6.598;2023-05-23T11:37:30;11.40;;;2.55;;
51852;SDS011;37894;53.172;6.598;2023-05-23T11:39:56;12.00;;;3.50;;
51852;SDS011;37894;53.172;6.598;2023-05-23T11:42:22;14.45;;;2.95;;
51852;SDS011;37894;53.172;6.598;2023-05-23T11:44:49;13.52;;;3.47;;
51852;SDS011;37894;53.172;6.598;2023-05-23T11:47:15;15.90;;;2.90;;
51852;SDS011;37894;53.172;6.598;2023-05-23T11:49:43;16.10;;;3.05;;
51852;SDS011;37894;53.172;6.598;2023-05-23T11:52:13;9.75;;;2.65;;
51852;SDS011;37894;53.172;6.598;2023-05-23T11:54:39;12.40;;;3.20;;
51852;SDS011;37894;53.172;6.598;2023-05-23T11:57:06;9.55;;;2.50;;
51852;SDS011;37894;53.172;6.598;2023-05-23T11:59:32;10.10;;;3.22;;
51852;SDS011;37894;53.172;6.598;2023-05-23T12:01:58;9.00;;;2.20;;
51852;SDS011;37894;53.172;6.598;2023-05-23T12:04:26;13.57;;;3.70;;
51852;SDS011;37894;53.172;6.598;2023-05-23T12:06:52;10.98;;;3.03;;
51852;SDS011;37894;53.172;6.598;2023-05-23T12:09:18;12.70;;;3.22;;
51852;SDS011;37894;53.172;6.598;2023-05-23T12:11:44;13.38;;;3.30;;
51852;SDS011;37894;53.172;6.598;2023-05-23T12:14:16;15.13;;;3.28;;
51852;SDS011;37894;53.172;6.598;2023-05-23T12:16:43;12.85;;;2.67;;
51852;SDS011;37894;53.172;6.598;2023-05-23T12:19:10;9.98;;;2.33;;
51852;SDS011;37894;53.172;6.598;2023-05-23T12:21:42;8.82;;;2.95;;
51852;SDS011;37894;53.172;6.598;2023-05-23T12:24:28;13.00;;;3.08;;
51852;SDS011;37894;53.172;6.598;2023-05-23T12:26:54;8.88;;;2.28;;
51852;SDS011;37894;53.172;6.598;2023-05-23T12:31:59;11.55;;;3.15;;
51852;SDS011;37894;53.172;6.598;2023-05-23T12:34:26;11.65;;;2.83;;
51852;SDS011;37894;53.172;6.598;2023-05-23T12:36:56;12.88;;;2.75;;
51852;SDS011;37894;53.172;6.598;2023-05-23T12:39:23;15.00;;;3.30;;
51852;SDS011;37894;53.172;6.598;2023-05-23T12:41:51;13.18;;;3.03;;
51852;SDS011;37894;53.172;6.598;2023-05-23T12:44:17;8.82;;;2.70;;
51852;SDS011;37894;53.172;6.598;2023-05-23T12:46:43;10.13;;;2.85;;
51852;SDS011;37894;53.172;6.598;2023-05-23T12:49:09;11.98;;;2.90;;
51852;SDS011;37894;53.172;6.598;2023-05-23T12:51:35;9.85;;;2.75;;
51852;SDS011;37894;53.172;6.598;2023-05-23T12:54:01;9.25;;;2.67;;
51852;SDS011;37894;53.172;6.598;2023-05-23T12:56:26;12.07;;;2.55;;
51852;SDS011;37894;53.172;6.598;2023-05-23T12:58:52;13.43;;;2.60;;
51852;SDS011;37894;53.172;6.598;2023-05-23T13:01:18;13.25;;;2.70;;
51852;SDS011;37894;53.172;6.598;2023-05-23T13:03:44;12.23;;;2.65;;
51852;SDS011;37894;53.172;6.598;2023-05-23T13:06:10;12.18;;;2.60;;
51852;SDS011;37894;53.172;6.598;2023-05-23T13:08:36;13.25;;;3.17;;
51852;SDS011;37894;53.172;6.598;2023-05-23T13:11:02;10.55;;;2.60;;
51852;SDS011;37894;53.172;6.598;2023-05-23T13:13:28;11.63;;;2.78;;
51852;SDS011;37894;53.172;6.598;2023-05-23T13:15:54;9.68;;;2.08;;
51852;SDS011;37894;53.172;6.598;2023-05-23T13:18:20;11.88;;;2.53;;
51852;SDS011;37894;53.172;6.598;2023-05-23T13:20:46;8.38;;;2.40;;
51852;SDS011;37894;53.172;6.598;2023-05-23T13:23:12;11.60;;;2.47;;
51852;SDS011;37894;53.172;6.598;2023-05-23T13:25:38;9.60;;;2.65;;
51852;SDS011;37894;53.172;6.598;2023-05-23T13:28:04;10.60;;;2.42;;
51852;SDS011;37894;53.172;6.598;2023-05-23T13:30:30;10.35;;;2.50;;
51852;SDS011;37894;53.172;6.598;2023-05-23T13:32:56;11.25;;;2.17;;
51852;SDS011;37894;53.172;6.598;2023-05-23T13:35:22;10.60;;;2.40;;
51852;SDS011;37894;53.172;6.598;2023-05-23T13:37:48;8.65;;;2.25;;
51852;SDS011;37894;53.172;6.598;2023-05-23T13:40:18;10.57;;;2.60;;
51852;SDS011;37894;53.172;6.598;2023-05-23T13:42:46;8.10;;;2.17;;
51852;SDS011;37894;53.172;6.598;2023-05-23T13:45:13;9.90;;;2.67;;
51852;SDS011;37894;53.172;6.598;2023-05-23T13:47:39;10.93;;;2.60;;
51852;SDS011;37894;53.172;6.598;2023-05-23T13:50:05;9.15;;;2.60;;
51852;SDS011;37894;53.172;6.598;2023-05-23T13:52:32;9.48;;;2.00;;
51852;SDS011;37894;53.172;6.598;2023-05-23T13:54:58;10.10;;;2.60;;
51852;SDS011;37894;53.172;6.598;2023-05-23T13:57:25;9.95;;;3.05;;
51852;SDS011;37894;53.172;6.598;2023-05-23T13:59:51;9.50;;;2.28;;
51852;SDS011;37894;53.172;6.598;2023-05-23T14:02:17;9.93;;;2.45;;
51852;SDS011;37894;53.172;6.598;2023-05-23T14:04:43;11.90;;;2.40;;
51852;SDS011;37894;53.172;6.598;2023-05-23T14:07:08;8.55;;;2.08;;
51852;SDS011;37894;53.172;6.598;2023-05-23T14:09:34;12.43;;;2.38;;
51852;SDS011;37894;53.172;6.598;2023-05-23T14:12:00;7.10;;;2.20;;
51852;SDS011;37894;53.172;6.598;2023-05-23T14:14:26;9.13;;;2.50;;
51852;SDS011;37894;53.172;6.598;2023-05-23T14:16:52;8.50;;;2.55;;
51852;SDS011;37894;53.172;6.598;2023-05-23T14:19:18;11.48;;;2.78;;
51852;SDS011;37894;53.172;6.598;2023-05-23T14:21:44;10.98;;;2.65;;
51852;SDS011;37894;53.172;6.598;2023-05-23T14:24:10;12.32;;;3.35;;
51852;SDS011;37894;53.172;6.598;2023-05-23T14:26:36;15.52;;;2.85;;
51852;SDS011;37894;53.172;6.598;2023-05-23T14:29:02;12.93;;;2.60;;
51852;SDS011;37894;53.172;6.598;2023-05-23T14:31:28;11.32;;;2.42;;
51852;SDS011;37894;53.172;6.598;2023-05-23T14:33:54;10.02;;;2.53;;
51852;SDS011;37894;53.172;6.598;2023-05-23T14:36:20;12.55;;;2.90;;
51852;SDS011;37894;53.172;6.598;2023-05-23T14:38:46;11.15;;;3.13;;
51852;SDS011;37894;53.172;6.598;2023-05-23T14:41:12;15.73;;;2.75;;
51852;SDS011;37894;53.172;6.598;2023-05-23T14:43:38;9.70;;;2.50;;
51852;SDS011;37894;53.172;6.598;2023-05-23T14:46:04;11.13;;;3.00;;
51852;SDS011;37894;53.172;6.598;2023-05-23T14:48:30;11.73;;;2.30;;
51852;SDS011;37894;53.172;6.598;2023-05-23T14:50:56;10.07;;;2.35;;
51852;SDS011;37894;53.172;6.598;2023-05-23T14:53:26;11.73;;;2.35;;
51852;SDS011;37894;53.172;6.598;2023-05-23T14:55:52;13.75;;;2.50;;
51852;SDS011;37894;53.172;6.598;2023-05-23T14:58:20;10.82;;;2.25;;
51852;SDS011;37894;53.172;6.598;2023-05-23T15:00:45;7.28;;;2.25;;
51852;SDS011;37894;53.172;6.598;2023-05-23T15:03:12;8.70;;;2.30;;